M S San Francisco — WZC3886 — position and weather

sailwx.info

Track history (hours):
 
Tides and Currents Weather Stations Pressure Air Temp Water Temp Dewpoint Dewpoint Depression Visibility Wind Speed Wind Dir Waves Ship Positions

M S San Francisco

Owner: GOLDEN GATE BRIDGE HWY & TRANSP DISTRICT, LARKSPUR, CA. More information available from US FCC via Universal Licensing System and Coast Guard Vessel Documentation Center.

Last reported at 2017-Apr-26 23:30 UTC. Time now 2017-Apr-26 23:42 UTC.
Position N 37°57' W 122°31'.

Length 58 m.

Type: Passenger vessel. MMSI: 366963980.

Date/timePositionNaut miles runAvg speedWind from/ knotsBaromVisibWave heightAir tempDewpointWater temp
2017-Apr-26 23:30N 37°57' W 122°31'0 0.0
2017-Apr-26 23:00N 37°57' W 122°31'0 0.0
2017-Apr-26 22:27N 37°57' W 122°31'0 0.0
2017-Apr-26 21:57N 37°57' W 122°31'0 0.0
2017-Apr-26 20:29N 37°57' W 122°31'0 0.0
2017-Apr-26 19:59N 37°57' W 122°31'0 0.1
2017-Apr-26 19:27N 37°57' W 122°30'0 0.1
2017-Apr-26 18:46N 37°57' W 122°31'0 0.0
2017-Apr-26 18:29N 37°57' W 122°31'0 0.0
2017-Apr-26 18:00N 37°57' W 122°31'0 0.1
2017-Apr-26 17:27N 37°57' W 122°30'0 0.1
2017-Apr-26 16:59N 37°57' W 122°31'0 0.0
2017-Apr-26 16:30N 37°57' W 122°31'0 0.0
2017-Apr-26 15:50N 37°57' W 122°31'0 0.0
2017-Apr-26 15:30N 37°57' W 122°31'0 0.0
2017-Apr-26 14:51N 37°57' W 122°31'0 0.0
2017-Apr-26 14:30N 37°57' W 122°31'0 0.1
2017-Apr-26 13:30N 37°57' W 122°31'0 0.0
2017-Apr-26 13:00N 37°57' W 122°31'0 0.0
2017-Apr-26 12:30N 37°57' W 122°31'0 0.0
2017-Apr-26 12:00N 37°57' W 122°31'0 0.0
2017-Apr-26 11:30N 37°57' W 122°31'0 0.0
2017-Apr-26 11:00N 37°57' W 122°31'0 0.0
2017-Apr-26 10:30N 37°57' W 122°31'0 0.0
2017-Apr-26 10:00N 37°57' W 122°31'0 0.0
2017-Apr-26 09:30N 37°57' W 122°31'0 0.0
2017-Apr-26 09:00N 37°57' W 122°31'0 0.0
2017-Apr-26 08:30N 37°57' W 122°31'0 0.0
2017-Apr-26 08:00N 37°57' W 122°31'0 0.0
2017-Apr-26 07:30N 37°57' W 122°31'0 0.0
2017-Apr-26 07:00N 37°57' W 122°31'0 0.0
2017-Apr-26 06:30N 37°57' W 122°31'0 0.0
2017-Apr-26 06:00N 37°57' W 122°31'0 0.0
2017-Apr-26 05:30N 37°57' W 122°31'0 0.0
2017-Apr-26 05:00N 37°57' W 122°31'0 0.0
2017-Apr-26 04:30N 37°57' W 122°31'2 3.7
2017-Apr-26 04:00N 37°56' W 122°28'4 7.5
2017-Apr-26 03:31N 37°52' W 122°27'510.6
2017-Apr-26 03:00N 37°48' W 122°24'510.9
2017-Apr-26 02:30N 37°52' W 122°27'510.8
2017-Apr-26 02:01N 37°48' W 122°23'4 7.3
2017-Apr-26 01:30N 37°51' W 122°26'1 1.8
2017-Apr-26 01:00N 37°50' W 122°25'3 6.0
2017-Apr-26 00:30N 37°48' W 122°23'611.0
2017-Apr-26 00:00N 37°52' W 122°27'510.8
2017-Apr-25 23:30N 37°48' W 122°23'0 0.4
2017-Apr-25 23:00N 37°48' W 122°23'0 0.5
2017-Apr-25 22:30N 37°48' W 122°24'0 0.0
2017-Apr-25 22:00N 37°48' W 122°24'0 0.0
2017-Apr-25 21:30N 37°48' W 122°24'0 0.0
2017-Apr-25 21:00N 37°48' W 122°24'0 0.0
2017-Apr-25 20:30N 37°48' W 122°24'0 0.0
2017-Apr-25 20:00N 37°48' W 122°24'0 0.0
2017-Apr-25 19:30N 37°48' W 122°24'0 0.0
2017-Apr-25 19:00N 37°48' W 122°24'0 0.0
2017-Apr-25 18:30N 37°48' W 122°24'0 0.0
2017-Apr-25 18:00N 37°48' W 122°24'0 0.0
2017-Apr-25 17:30N 37°48' W 122°24'0 0.3
2017-Apr-25 17:00N 37°48' W 122°23'1 1.3
2017-Apr-25 16:30N 37°49' W 122°23'5 9.5
2017-Apr-25 16:00N 37°52' W 122°27'510.6
2017-Apr-25 15:31N 37°48' W 122°24'510.8
2017-Apr-25 15:00N 37°52' W 122°27'4 8.0
2017-Apr-25 14:30N 37°49' W 122°24'4 4.0
2017-Apr-25 13:30N 37°52' W 122°27'510.8
2017-Apr-25 13:00N 37°48' W 122°24'510.9
2017-Apr-25 12:30N 37°52' W 122°27'2 3.5
2017-Apr-25 12:01N 37°54' W 122°27'4 0.8
2017-Apr-25 07:06N 37°57' W 122°31'0 0.0
2017-Apr-25 06:59N 37°57' W 122°31'1 1.6
2017-Apr-25 06:30N 37°56' W 122°30'917.4
2017-Apr-25 06:01N 37°49' W 122°23'3 5.1
2017-Apr-25 05:30N 37°47' W 122°23'0 0.0
2017-Apr-25 05:00N 37°47' W 122°23'0 0.0
2017-Apr-25 04:30N 37°47' W 122°23'0 0.0
2017-Apr-25 04:00N 37°47' W 122°23'0 0.0
2017-Apr-25 03:30N 37°47' W 122°23'0 0.0
2017-Apr-25 03:00N 37°47' W 122°23'0 0.0
2017-Apr-25 02:30N 37°47' W 122°23'0 0.0
2017-Apr-25 02:00N 37°47' W 122°23'1 2.2
2017-Apr-25 01:30N 37°48' W 122°23'1019.6
2017-Apr-25 01:00N 37°56' W 122°29'1 1.9
2017-Apr-25 00:22N 37°57' W 122°31'0 0.0
2017-Apr-24 23:54N 37°57' W 122°31'0 0.0
2017-Apr-24 23:30N 37°57' W 122°31'0 0.0
2017-Apr-24 22:59N 37°57' W 122°31'0 0.0
2017-Apr-24 22:30N 37°57' W 122°31'0 0.0
2017-Apr-24 22:00N 37°57' W 122°31'0 0.0
2017-Apr-24 21:29N 37°57' W 122°31'0 0.0
2017-Apr-24 21:00N 37°57' W 122°31'0 0.3
2017-Apr-24 20:30N 37°57' W 122°30'510.4
2017-Apr-24 19:59N 37°60' W 122°25'917.6
2017-Apr-24 19:28N 38°05' W 122°15'  
Track history (hours):
 
Tides and Currents Weather Stations Pressure Air Temp Water Temp Dewpoint Dewpoint Depression Visibility Wind Speed Wind Dir Waves Ship Positions

M S San Francisco

Owner: GOLDEN GATE BRIDGE HWY & TRANSP DISTRICT, LARKSPUR, CA. More information available from US FCC via Universal Licensing System and Coast Guard Vessel Documentation Center.

Last reported at 2017-Apr-26 23:30 UTC. Time now 2017-Apr-26 23:42 UTC.
Position N 37°57' W 122°31'.

Length 58 m.

Type: Passenger vessel. MMSI: 366963980.

Date/timePositionNaut miles runAvg speedWind from/ knotsBaromVisibWave heightAir tempDewpointWater temp
2017-Apr-26 23:30N 37°57' W 122°31'0 0.0
2017-Apr-26 23:00N 37°57' W 122°31'0 0.0
2017-Apr-26 22:27N 37°57' W 122°31'0 0.0
2017-Apr-26 21:57N 37°57' W 122°31'0 0.0
2017-Apr-26 20:29N 37°57' W 122°31'0 0.0
2017-Apr-26 19:59N 37°57' W 122°31'0 0.1
2017-Apr-26 19:27N 37°57' W 122°30'0 0.1
2017-Apr-26 18:46N 37°57' W 122°31'0 0.0
2017-Apr-26 18:29N 37°57' W 122°31'0 0.0
2017-Apr-26 18:00N 37°57' W 122°31'0 0.1
2017-Apr-26 17:27N 37°57' W 122°30'0 0.1
2017-Apr-26 16:59N 37°57' W 122°31'0 0.0
2017-Apr-26 16:30N 37°57' W 122°31'0 0.0
2017-Apr-26 15:50N 37°57' W 122°31'0 0.0
2017-Apr-26 15:30N 37°57' W 122°31'0 0.0
2017-Apr-26 14:51N 37°57' W 122°31'0 0.0
2017-Apr-26 14:30N 37°57' W 122°31'0 0.1
2017-Apr-26 13:30N 37°57' W 122°31'0 0.0
2017-Apr-26 13:00N 37°57' W 122°31'0 0.0
2017-Apr-26 12:30N 37°57' W 122°31'0 0.0
2017-Apr-26 12:00N 37°57' W 122°31'0 0.0
2017-Apr-26 11:30N 37°57' W 122°31'0 0.0
2017-Apr-26 11:00N 37°57' W 122°31'0 0.0
2017-Apr-26 10:30N 37°57' W 122°31'0 0.0
2017-Apr-26 10:00N 37°57' W 122°31'0 0.0
2017-Apr-26 09:30N 37°57' W 122°31'0 0.0
2017-Apr-26 09:00N 37°57' W 122°31'0 0.0
2017-Apr-26 08:30N 37°57' W 122°31'0 0.0
2017-Apr-26 08:00N 37°57' W 122°31'0 0.0
2017-Apr-26 07:30N 37°57' W 122°31'0 0.0
2017-Apr-26 07:00N 37°57' W 122°31'0 0.0
2017-Apr-26 06:30N 37°57' W 122°31'0 0.0
2017-Apr-26 06:00N 37°57' W 122°31'0 0.0
2017-Apr-26 05:30N 37°57' W 122°31'0 0.0
2017-Apr-26 05:00N 37°57' W 122°31'0 0.0
2017-Apr-26 04:30N 37°57' W 122°31'2 3.7
2017-Apr-26 04:00N 37°56' W 122°28'4 7.5
2017-Apr-26 03:31N 37°52' W 122°27'510.6
2017-Apr-26 03:00N 37°48' W 122°24'510.9
2017-Apr-26 02:30N 37°52' W 122°27'510.8
2017-Apr-26 02:01N 37°48' W 122°23'4 7.3
2017-Apr-26 01:30N 37°51' W 122°26'1 1.8
2017-Apr-26 01:00N 37°50' W 122°25'3 6.0
2017-Apr-26 00:30N 37°48' W 122°23'611.0
2017-Apr-26 00:00N 37°52' W 122°27'510.8
2017-Apr-25 23:30N 37°48' W 122°23'0 0.4
2017-Apr-25 23:00N 37°48' W 122°23'0 0.5
2017-Apr-25 22:30N 37°48' W 122°24'0 0.0
2017-Apr-25 22:00N 37°48' W 122°24'0 0.0
2017-Apr-25 21:30N 37°48' W 122°24'0 0.0
2017-Apr-25 21:00N 37°48' W 122°24'0 0.0
2017-Apr-25 20:30N 37°48' W 122°24'0 0.0
2017-Apr-25 20:00N 37°48' W 122°24'0 0.0
2017-Apr-25 19:30N 37°48' W 122°24'0 0.0
2017-Apr-25 19:00N 37°48' W 122°24'0 0.0
2017-Apr-25 18:30N 37°48' W 122°24'0 0.0
2017-Apr-25 18:00N 37°48' W 122°24'0 0.0
2017-Apr-25 17:30N 37°48' W 122°24'0 0.3
2017-Apr-25 17:00N 37°48' W 122°23'1 1.3
2017-Apr-25 16:30N 37°49' W 122°23'5 9.5
2017-Apr-25 16:00N 37°52' W 122°27'510.6
2017-Apr-25 15:31N 37°48' W 122°24'510.8
2017-Apr-25 15:00N 37°52' W 122°27'4 8.0
2017-Apr-25 14:30N 37°49' W 122°24'4 4.0
2017-Apr-25 13:30N 37°52' W 122°27'510.8
2017-Apr-25 13:00N 37°48' W 122°24'510.9
2017-Apr-25 12:30N 37°52' W 122°27'2 3.5
2017-Apr-25 12:01N 37°54' W 122°27'4 0.8
2017-Apr-25 07:06N 37°57' W 122°31'0 0.0
2017-Apr-25 06:59N 37°57' W 122°31'1 1.6
2017-Apr-25 06:30N 37°56' W 122°30'917.4
2017-Apr-25 06:01N 37°49' W 122°23'3 5.1
2017-Apr-25 05:30N 37°47' W 122°23'0 0.0
2017-Apr-25 05:00N 37°47' W 122°23'0 0.0
2017-Apr-25 04:30N 37°47' W 122°23'0 0.0
2017-Apr-25 04:00N 37°47' W 122°23'0 0.0
2017-Apr-25 03:30N 37°47' W 122°23'0 0.0
2017-Apr-25 03:00N 37°47' W 122°23'0 0.0
2017-Apr-25 02:30N 37°47' W 122°23'0 0.0
2017-Apr-25 02:00N 37°47' W 122°23'1 2.2
2017-Apr-25 01:30N 37°48' W 122°23'1019.6
2017-Apr-25 01:00N 37°56' W 122°29'1 1.9
2017-Apr-25 00:22N 37°57' W 122°31'0 0.0
2017-Apr-24 23:54N 37°57' W 122°31'0 0.0
2017-Apr-24 23:30N 37°57' W 122°31'0 0.0
2017-Apr-24 22:59N 37°57' W 122°31'0 0.0
2017-Apr-24 22:30N 37°57' W 122°31'0 0.0
2017-Apr-24 22:00N 37°57' W 122°31'0 0.0
2017-Apr-24 21:29N 37°57' W 122°31'0 0.0
2017-Apr-24 21:00N 37°57' W 122°31'0 0.3
2017-Apr-24 20:30N 37°57' W 122°30'510.4
2017-Apr-24 19:59N 37°60' W 122°25'917.6
2017-Apr-24 19:28N 38°05' W 122°15'  

Dump ship's entire track history